sensor_id;sensor_type;location;lat;lon;timestamp;P1;durP1;ratioP1;P2;durP2;ratioP2
22965;SDS011;11649;48.090;9.754;2022-08-25T00:01:34;4.93;;;4.10;;
22965;SDS011;11649;48.090;9.754;2022-08-25T00:04:05;5.07;;;4.57;;
22965;SDS011;11649;48.090;9.754;2022-08-25T00:06:36;4.53;;;4.13;;
22965;SDS011;11649;48.090;9.754;2022-08-25T00:09:05;6.18;;;4.38;;
22965;SDS011;11649;48.090;9.754;2022-08-25T00:11:34;4.93;;;3.92;;
22965;SDS011;11649;48.090;9.754;2022-08-25T00:14:05;6.13;;;4.07;;
22965;SDS011;11649;48.090;9.754;2022-08-25T00:16:34;5.63;;;5.00;;
22965;SDS011;11649;48.090;9.754;2022-08-25T00:19:03;5.93;;;5.22;;
22965;SDS011;11649;48.090;9.754;2022-08-25T00:21:33;5.82;;;4.50;;
22965;SDS011;11649;48.090;9.754;2022-08-25T00:24:00;5.78;;;4.93;;
22965;SDS011;11649;48.090;9.754;2022-08-25T00:26:28;5.95;;;4.57;;
22965;SDS011;11649;48.090;9.754;2022-08-25T00:28:55;5.55;;;4.93;;
22965;SDS011;11649;48.090;9.754;2022-08-25T00:31:27;5.38;;;4.88;;
22965;SDS011;11649;48.090;9.754;2022-08-25T00:34:04;6.50;;;4.90;;
22965;SDS011;11649;48.090;9.754;2022-08-25T00:36:36;6.80;;;4.90;;
22965;SDS011;11649;48.090;9.754;2022-08-25T00:39:04;6.55;;;4.78;;
22965;SDS011;11649;48.090;9.754;2022-08-25T00:41:32;5.55;;;4.97;;
22965;SDS011;11649;48.090;9.754;2022-08-25T00:44:03;7.30;;;5.70;;
22965;SDS011;11649;48.090;9.754;2022-08-25T00:46:35;6.03;;;5.43;;
22965;SDS011;11649;48.090;9.754;2022-08-25T00:49:13;5.43;;;4.93;;
22965;SDS011;11649;48.090;9.754;2022-08-25T00:51:53;5.82;;;5.22;;
22965;SDS011;11649;48.090;9.754;2022-08-25T00:54:25;6.22;;;5.00;;
22965;SDS011;11649;48.090;9.754;2022-08-25T00:56:55;6.50;;;5.68;;
22965;SDS011;11649;48.090;9.754;2022-08-25T00:59:23;6.10;;;5.50;;
22965;SDS011;11649;48.090;9.754;2022-08-25T01:01:52;7.53;;;5.63;;
22965;SDS011;11649;48.090;9.754;2022-08-25T01:04:20;6.30;;;5.43;;
22965;SDS011;11649;48.090;9.754;2022-08-25T01:06:47;6.47;;;5.88;;
22965;SDS011;11649;48.090;9.754;2022-08-25T01:09:14;6.00;;;5.40;;
22965;SDS011;11649;48.090;9.754;2022-08-25T01:11:43;7.10;;;5.47;;
22965;SDS011;11649;48.090;9.754;2022-08-25T01:14:12;5.95;;;5.35;;
22965;SDS011;11649;48.090;9.754;2022-08-25T01:16:42;7.88;;;5.82;;
22965;SDS011;11649;48.090;9.754;2022-08-25T01:19:09;6.63;;;5.13;;
22965;SDS011;11649;48.090;9.754;2022-08-25T01:21:41;6.20;;;5.43;;
22965;SDS011;11649;48.090;9.754;2022-08-25T01:24:11;6.45;;;5.75;;
22965;SDS011;11649;48.090;9.754;2022-08-25T01:26:53;7.22;;;5.90;;
22965;SDS011;11649;48.090;9.754;2022-08-25T01:29:20;9.05;;;5.60;;
22965;SDS011;11649;48.090;9.754;2022-08-25T01:31:48;7.45;;;5.85;;
22965;SDS011;11649;48.090;9.754;2022-08-25T01:34:17;6.05;;;5.45;;
22965;SDS011;11649;48.090;9.754;2022-08-25T01:36:44;7.00;;;5.78;;
22965;SDS011;11649;48.090;9.754;2022-08-25T01:39:11;5.70;;;5.20;;
22965;SDS011;11649;48.090;9.754;2022-08-25T01:44:35;6.20;;;5.30;;
22965;SDS011;11649;48.090;9.754;2022-08-25T01:47:05;7.03;;;5.30;;
22965;SDS011;11649;48.090;9.754;2022-08-25T01:49:33;7.15;;;5.85;;
22965;SDS011;11649;48.090;9.754;2022-08-25T01:54:37;5.82;;;5.22;;
22965;SDS011;11649;48.090;9.754;2022-08-25T01:57:04;8.10;;;5.30;;
22965;SDS011;11649;48.090;9.754;2022-08-25T01:59:31;5.97;;;5.38;;
22965;SDS011;11649;48.090;9.754;2022-08-25T02:01:58;6.63;;;5.88;;
22965;SDS011;11649;48.090;9.754;2022-08-25T02:04:26;8.63;;;6.43;;
22965;SDS011;11649;48.090;9.754;2022-08-25T02:06:58;7.15;;;5.53;;
22965;SDS011;11649;48.090;9.754;2022-08-25T02:09:26;7.97;;;6.20;;
22965;SDS011;11649;48.090;9.754;2022-08-25T02:11:53;8.80;;;6.53;;
22965;SDS011;11649;48.090;9.754;2022-08-25T02:14:21;6.93;;;6.22;;
22965;SDS011;11649;48.090;9.754;2022-08-25T02:16:49;6.88;;;5.80;;
22965;SDS011;11649;48.090;9.754;2022-08-25T02:19:18;7.57;;;6.15;;
22965;SDS011;11649;48.090;9.754;2022-08-25T02:21:46;11.10;;;6.90;;
22965;SDS011;11649;48.090;9.754;2022-08-25T02:24:13;9.23;;;7.25;;
22965;SDS011;11649;48.090;9.754;2022-08-25T02:26:40;7.30;;;6.38;;
22965;SDS011;11649;48.090;9.754;2022-08-25T02:29:07;7.95;;;6.32;;
22965;SDS011;11649;48.090;9.754;2022-08-25T02:31:35;7.57;;;6.68;;
22965;SDS011;11649;48.090;9.754;2022-08-25T02:34:03;9.27;;;6.82;;
22965;SDS011;11649;48.090;9.754;2022-08-25T02:36:30;9.85;;;7.10;;
22965;SDS011;11649;48.090;9.754;2022-08-25T02:38:58;8.50;;;7.18;;
22965;SDS011;11649;48.090;9.754;2022-08-25T02:41:25;12.13;;;8.02;;
22965;SDS011;11649;48.090;9.754;2022-08-25T02:43:56;9.05;;;7.47;;
22965;SDS011;11649;48.090;9.754;2022-08-25T02:46:24;7.93;;;6.97;;
22965;SDS011;11649;48.090;9.754;2022-08-25T02:48:51;7.72;;;6.90;;
22965;SDS011;11649;48.090;9.754;2022-08-25T02:51:19;11.25;;;8.45;;
22965;SDS011;11649;48.090;9.754;2022-08-25T02:53:48;12.73;;;7.28;;
22965;SDS011;11649;48.090;9.754;2022-08-25T02:56:16;11.05;;;8.55;;
22965;SDS011;11649;48.090;9.754;2022-08-25T02:58:44;10.43;;;8.40;;
22965;SDS011;11649;48.090;9.754;2022-08-25T03:01:12;9.65;;;8.05;;
22965;SDS011;11649;48.090;9.754;2022-08-25T03:03:41;9.98;;;8.00;;
22965;SDS011;11649;48.090;9.754;2022-08-25T03:06:11;10.55;;;8.13;;
22965;SDS011;11649;48.090;9.754;2022-08-25T03:08:39;9.68;;;8.35;;
22965;SDS011;11649;48.090;9.754;2022-08-25T03:11:07;11.35;;;9.23;;
22965;SDS011;11649;48.090;9.754;2022-08-25T03:13:35;12.27;;;8.82;;
22965;SDS011;11649;48.090;9.754;2022-08-25T03:16:03;10.00;;;8.57;;
22965;SDS011;11649;48.090;9.754;2022-08-25T03:18:37;9.38;;;8.38;;
22965;SDS011;11649;48.090;9.754;2022-08-25T03:21:05;10.65;;;8.68;;
22965;SDS011;11649;48.090;9.754;2022-08-25T03:23:33;12.18;;;9.88;;
22965;SDS011;11649;48.090;9.754;2022-08-25T03:26:00;12.27;;;9.60;;
22965;SDS011;11649;48.090;9.754;2022-08-25T03:28:46;14.40;;;10.35;;
22965;SDS011;11649;48.090;9.754;2022-08-25T03:31:13;11.18;;;9.55;;
22965;SDS011;11649;48.090;9.754;2022-08-25T03:33:40;12.43;;;10.10;;
22965;SDS011;11649;48.090;9.754;2022-08-25T03:36:07;12.40;;;8.60;;
22965;SDS011;11649;48.090;9.754;2022-08-25T03:38:34;9.52;;;8.45;;
22965;SDS011;11649;48.090;9.754;2022-08-25T03:41:10;13.32;;;10.15;;
22965;SDS011;11649;48.090;9.754;2022-08-25T03:43:42;11.18;;;9.48;;
22965;SDS011;11649;48.090;9.754;2022-08-25T03:46:21;11.68;;;9.75;;
22965;SDS011;11649;48.090;9.754;2022-08-25T03:48:51;11.73;;;9.40;;
22965;SDS011;11649;48.090;9.754;2022-08-25T03:51:26;14.55;;;11.07;;
22965;SDS011;11649;48.090;9.754;2022-08-25T03:54:06;19.35;;;11.95;;
22965;SDS011;11649;48.090;9.754;2022-08-25T03:56:35;12.95;;;10.60;;
22965;SDS011;11649;48.090;9.754;2022-08-25T03:59:03;13.10;;;10.20;;
22965;SDS011;11649;48.090;9.754;2022-08-25T04:01:31;13.98;;;10.82;;
22965;SDS011;11649;48.090;9.754;2022-08-25T04:03:58;16.30;;;11.95;;
22965;SDS011;11649;48.090;9.754;2022-08-25T04:06:24;14.95;;;11.75;;
22965;SDS011;11649;48.090;9.754;2022-08-25T04:08:51;13.73;;;11.07;;
22965;SDS011;11649;48.090;9.754;2022-08-25T04:11:19;14.55;;;10.02;;
22965;SDS011;11649;48.090;9.754;2022-08-25T04:13:49;14.00;;;10.68;;
22965;SDS011;11649;48.090;9.754;2022-08-25T04:16:18;11.85;;;9.85;;
22965;SDS011;11649;48.090;9.754;2022-08-25T04:18:48;12.23;;;9.68;;
22965;SDS011;11649;48.090;9.754;2022-08-25T04:21:16;11.23;;;9.68;;
22965;SDS011;11649;48.090;9.754;2022-08-25T04:23:45;12.43;;;10.18;;
22965;SDS011;11649;48.090;9.754;2022-08-25T04:26:17;11.73;;;10.15;;
22965;SDS011;11649;48.090;9.754;2022-08-25T04:28:47;13.55;;;10.95;;
22965;SDS011;11649;48.090;9.754;2022-08-25T04:31:15;14.68;;;11.40;;
22965;SDS011;11649;48.090;9.754;2022-08-25T04:33:42;18.50;;;13.18;;
22965;SDS011;11649;48.090;9.754;2022-08-25T04:36:14;16.92;;;11.95;;
22965;SDS011;11649;48.090;9.754;2022-08-25T04:38:42;13.18;;;10.68;;
22965;SDS011;11649;48.090;9.754;2022-08-25T04:41:10;14.13;;;11.50;;
22965;SDS011;11649;48.090;9.754;2022-08-25T04:43:39;13.88;;;11.00;;
22965;SDS011;11649;48.090;9.754;2022-08-25T04:46:08;13.77;;;10.93;;
22965;SDS011;11649;48.090;9.754;2022-08-25T04:48:46;16.33;;;11.23;;
22965;SDS011;11649;48.090;9.754;2022-08-25T04:51:18;16.02;;;12.68;;
22965;SDS011;11649;48.090;9.754;2022-08-25T04:53:48;14.55;;;11.63;;
22965;SDS011;11649;48.090;9.754;2022-08-25T04:56:20;13.70;;;11.07;;
22965;SDS011;11649;48.090;9.754;2022-08-25T04:58:51;16.60;;;11.93;;
22965;SDS011;11649;48.090;9.754;2022-08-25T05:01:20;15.98;;;12.63;;
22965;SDS011;11649;48.090;9.754;2022-08-25T05:03:57;17.90;;;12.20;;
22965;SDS011;11649;48.090;9.754;2022-08-25T05:06:25;14.85;;;11.82;;
22965;SDS011;11649;48.090;9.754;2022-08-25T05:08:54;16.83;;;12.52;;
22965;SDS011;11649;48.090;9.754;2022-08-25T05:11:22;15.75;;;11.82;;
22965;SDS011;11649;48.090;9.754;2022-08-25T05:13:51;17.58;;;12.38;;
22965;SDS011;11649;48.090;9.754;2022-08-25T05:16:20;15.82;;;11.63;;
22965;SDS011;11649;48.090;9.754;2022-08-25T05:18:49;15.23;;;11.98;;
22965;SDS011;11649;48.090;9.754;2022-08-25T05:21:18;19.73;;;13.25;;
22965;SDS011;11649;48.090;9.754;2022-08-25T05:23:47;18.13;;;13.68;;
22965;SDS011;11649;48.090;9.754;2022-08-25T05:26:19;18.35;;;13.38;;
22965;SDS011;11649;48.090;9.754;2022-08-25T05:28:48;19.70;;;14.70;;
22965;SDS011;11649;48.090;9.754;2022-08-25T05:31:16;17.08;;;13.85;;
22965;SDS011;11649;48.090;9.754;2022-08-25T05:33:43;16.98;;;13.68;;
22965;SDS011;11649;48.090;9.754;2022-08-25T05:36:11;19.58;;;14.40;;
22965;SDS011;11649;48.090;9.754;2022-08-25T05:38:39;20.02;;;15.32;;
22965;SDS011;11649;48.090;9.754;2022-08-25T05:41:08;20.38;;;15.20;;
22965;SDS011;11649;48.090;9.754;2022-08-25T05:43:38;19.63;;;14.82;;
22965;SDS011;11649;48.090;9.754;2022-08-25T05:46:06;19.20;;;13.70;;
22965;SDS011;11649;48.090;9.754;2022-08-25T05:48:34;20.13;;;15.02;;
22965;SDS011;11649;48.090;9.754;2022-08-25T05:51:02;18.83;;;13.40;;
22965;SDS011;11649;48.090;9.754;2022-08-25T05:53:32;17.58;;;13.30;;
22965;SDS011;11649;48.090;9.754;2022-08-25T05:55:59;18.65;;;14.02;;
22965;SDS011;11649;48.090;9.754;2022-08-25T05:58:27;21.75;;;14.90;;
22965;SDS011;11649;48.090;9.754;2022-08-25T06:00:54;19.90;;;13.05;;
22965;SDS011;11649;48.090;9.754;2022-08-25T06:03:22;17.20;;;13.38;;
22965;SDS011;11649;48.090;9.754;2022-08-25T06:05:49;19.70;;;14.27;;
22965;SDS011;11649;48.090;9.754;2022-08-25T06:08:16;18.98;;;15.13;;
22965;SDS011;11649;48.090;9.754;2022-08-25T06:10:42;18.42;;;14.90;;
22965;SDS011;11649;48.090;9.754;2022-08-25T06:13:09;15.85;;;13.27;;
22965;SDS011;11649;48.090;9.754;2022-08-25T06:15:37;17.77;;;13.57;;
22965;SDS011;11649;48.090;9.754;2022-08-25T06:18:04;19.73;;;14.05;;
22965;SDS011;11649;48.090;9.754;2022-08-25T06:20:31;18.58;;;14.13;;
22965;SDS011;11649;48.090;9.754;2022-08-25T06:22:58;24.08;;;16.27;;
22965;SDS011;11649;48.090;9.754;2022-08-25T06:25:25;21.73;;;13.95;;
22965;SDS011;11649;48.090;9.754;2022-08-25T06:27:53;17.98;;;14.05;;
22965;SDS011;11649;48.090;9.754;2022-08-25T06:30:21;17.35;;;13.52;;
22965;SDS011;11649;48.090;9.754;2022-08-25T06:32:54;20.75;;;13.88;;
22965;SDS011;11649;48.090;9.754;2022-08-25T06:35:22;15.13;;;12.02;;
22965;SDS011;11649;48.090;9.754;2022-08-25T06:37:49;17.40;;;13.30;;
22965;SDS011;11649;48.090;9.754;2022-08-25T06:40:15;16.42;;;12.38;;
22965;SDS011;11649;48.090;9.754;2022-08-25T06:42:45;20.88;;;12.05;;
22965;SDS011;11649;48.090;9.754;2022-08-25T06:45:13;19.00;;;13.40;;
22965;SDS011;11649;48.090;9.754;2022-08-25T06:47:41;15.25;;;11.90;;
22965;SDS011;11649;48.090;9.754;2022-08-25T06:50:10;17.95;;;13.68;;
22965;SDS011;11649;48.090;9.754;2022-08-25T06:52:37;17.73;;;12.68;;
22965;SDS011;11649;48.090;9.754;2022-08-25T06:55:04;14.77;;;11.73;;
22965;SDS011;11649;48.090;9.754;2022-08-25T06:57:31;16.88;;;13.18;;
22965;SDS011;11649;48.090;9.754;2022-08-25T07:00:03;15.48;;;11.82;;
22965;SDS011;11649;48.090;9.754;2022-08-25T07:02:33;14.48;;;11.38;;
22965;SDS011;11649;48.090;9.754;2022-08-25T07:05:00;14.55;;;11.05;;
22965;SDS011;11649;48.090;9.754;2022-08-25T07:07:29;17.40;;;13.13;;
22965;SDS011;11649;48.090;9.754;2022-08-25T07:10:08;15.80;;;11.23;;
22965;SDS011;11649;48.090;9.754;2022-08-25T07:12:36;13.20;;;11.13;;
22965;SDS011;11649;48.090;9.754;2022-08-25T07:15:03;14.30;;;10.95;;
22965;SDS011;11649;48.090;9.754;2022-08-25T07:17:45;14.38;;;11.80;;
22965;SDS011;11649;48.090;9.754;2022-08-25T07:20:14;15.23;;;12.23;;
22965;SDS011;11649;48.090;9.754;2022-08-25T07:22:44;13.88;;;10.60;;
22965;SDS011;11649;48.090;9.754;2022-08-25T07:25:11;16.70;;;12.70;;
22965;SDS011;11649;48.090;9.754;2022-08-25T07:27:38;15.95;;;12.30;;
22965;SDS011;11649;48.090;9.754;2022-08-25T07:30:08;14.13;;;10.48;;
22965;SDS011;11649;48.090;9.754;2022-08-25T07:32:36;15.90;;;10.48;;
22965;SDS011;11649;48.090;9.754;2022-08-25T07:35:08;18.27;;;12.80;;
22965;SDS011;11649;48.090;9.754;2022-08-25T07:37:51;16.00;;;11.27;;
22965;SDS011;11649;48.090;9.754;2022-08-25T07:40:25;13.55;;;10.70;;
22965;SDS011;11649;48.090;9.754;2022-08-25T07:42:55;16.60;;;11.90;;
22965;SDS011;11649;48.090;9.754;2022-08-25T07:45:25;17.45;;;12.32;;
22965;SDS011;11649;48.090;9.754;2022-08-25T07:47:57;14.38;;;11.15;;
22965;SDS011;11649;48.090;9.754;2022-08-25T07:50:27;15.07;;;10.38;;
22965;SDS011;11649;48.090;9.754;2022-08-25T07:52:55;16.08;;;12.30;;
22965;SDS011;11649;48.090;9.754;2022-08-25T07:55:23;14.65;;;11.50;;
22965;SDS011;11649;48.090;9.754;2022-08-25T07:57:52;13.48;;;10.07;;
22965;SDS011;11649;48.090;9.754;2022-08-25T08:00:22;15.35;;;10.65;;
22965;SDS011;11649;48.090;9.754;2022-08-25T08:02:53;13.90;;;11.18;;
22965;SDS011;11649;48.090;9.754;2022-08-25T08:05:20;13.98;;;10.70;;
22965;SDS011;11649;48.090;9.754;2022-08-25T08:07:49;15.65;;;11.30;;
22965;SDS011;11649;48.090;9.754;2022-08-25T08:10:16;13.07;;;10.23;;
22965;SDS011;11649;48.090;9.754;2022-08-25T08:13:03;15.52;;;11.05;;
22965;SDS011;11649;48.090;9.754;2022-08-25T08:15:33;14.05;;;10.18;;
22965;SDS011;11649;48.090;9.754;2022-08-25T08:18:00;10.73;;;8.68;;
22965;SDS011;11649;48.090;9.754;2022-08-25T08:20:28;11.13;;;9.27;;
22965;SDS011;11649;48.090;9.754;2022-08-25T08:23:08;10.65;;;8.65;;
22965;SDS011;11649;48.090;9.754;2022-08-25T08:25:35;11.63;;;8.40;;
22965;SDS011;11649;48.090;9.754;2022-08-25T08:28:02;10.70;;;7.75;;
22965;SDS011;11649;48.090;9.754;2022-08-25T08:30:32;13.73;;;8.65;;
22965;SDS011;11649;48.090;9.754;2022-08-25T08:33:02;8.68;;;6.90;;
22965;SDS011;11649;48.090;9.754;2022-08-25T08:35:38;8.82;;;7.15;;
22965;SDS011;11649;48.090;9.754;2022-08-25T08:38:07;8.13;;;7.05;;
22965;SDS011;11649;48.090;9.754;2022-08-25T08:40:57;6.40;;;5.28;;
22965;SDS011;11649;48.090;9.754;2022-08-25T08:43:52;6.88;;;6.18;;
22965;SDS011;11649;48.090;9.754;2022-08-25T08:46:24;8.25;;;6.97;;
22965;SDS011;11649;48.090;9.754;2022-08-25T08:49:04;8.18;;;5.45;;
22965;SDS011;11649;48.090;9.754;2022-08-25T08:51:38;6.60;;;5.95;;
22965;SDS011;11649;48.090;9.754;2022-08-25T08:54:19;6.88;;;5.90;;
22965;SDS011;11649;48.090;9.754;2022-08-25T08:57:01;6.82;;;6.13;;
22965;SDS011;11649;48.090;9.754;2022-08-25T08:59:39;6.47;;;5.40;;
22965;SDS011;11649;48.090;9.754;2022-08-25T09:02:29;7.22;;;5.80;;
22965;SDS011;11649;48.090;9.754;2022-08-25T09:05:16;8.20;;;5.20;;
22965;SDS011;11649;48.090;9.754;2022-08-25T09:07:50;6.40;;;4.68;;
22965;SDS011;11649;48.090;9.754;2022-08-25T09:11:00;7.75;;;4.97;;
22965;SDS011;11649;48.090;9.754;2022-08-25T09:16:32;5.22;;;4.60;;
22965;SDS011;11649;48.090;9.754;2022-08-25T09:22:04;6.38;;;5.05;;
22965;SDS011;11649;48.090;9.754;2022-08-25T09:28:06;4.10;;;3.70;;
22965;SDS011;11649;48.090;9.754;2022-08-25T09:31:04;4.85;;;4.18;;
22965;SDS011;11649;48.090;9.754;2022-08-25T09:33:42;6.95;;;4.70;;
22965;SDS011;11649;48.090;9.754;2022-08-25T09:36:11;6.65;;;4.60;;
22965;SDS011;11649;48.090;9.754;2022-08-25T09:38:39;5.43;;;4.38;;
22965;SDS011;11649;48.090;9.754;2022-08-25T09:41:07;5.32;;;4.20;;
22965;SDS011;11649;48.090;9.754;2022-08-25T09:43:35;9.05;;;4.32;;
22965;SDS011;11649;48.090;9.754;2022-08-25T09:48:49;4.38;;;3.97;;
22965;SDS011;11649;48.090;9.754;2022-08-25T09:51:30;4.40;;;4.00;;
22965;SDS011;11649;48.090;9.754;2022-08-25T09:56:54;4.22;;;3.83;;
22965;SDS011;11649;48.090;9.754;2022-08-25T09:59:27;8.55;;;3.72;;
22965;SDS011;11649;48.090;9.754;2022-08-25T10:04:41;5.45;;;3.60;;
22965;SDS011;11649;48.090;9.754;2022-08-25T10:07:47;7.38;;;3.70;;
22965;SDS011;11649;48.090;9.754;2022-08-25T10:12:49;4.90;;;3.90;;
22965;SDS011;11649;48.090;9.754;2022-08-25T10:17:56;4.05;;;3.42;;
22965;SDS011;11649;48.090;9.754;2022-08-25T10:20:43;6.90;;;4.00;;
22965;SDS011;11649;48.090;9.754;2022-08-25T10:23:25;5.60;;;3.60;;
22965;SDS011;11649;48.090;9.754;2022-08-25T10:25:55;3.95;;;3.42;;
22965;SDS011;11649;48.090;9.754;2022-08-25T10:28:32;4.38;;;3.70;;
22965;SDS011;11649;48.090;9.754;2022-08-25T10:31:25;4.82;;;3.90;;
22965;SDS011;11649;48.090;9.754;2022-08-25T10:34:08;5.18;;;4.00;;
22965;SDS011;11649;48.090;9.754;2022-08-25T10:39:40;5.93;;;3.92;;
22965;SDS011;11649;48.090;9.754;2022-08-25T10:45:29;4.28;;;3.83;;
22965;SDS011;11649;48.090;9.754;2022-08-25T10:48:05;4.85;;;3.80;;
22965;SDS011;11649;48.090;9.754;2022-08-25T10:56:04;4.18;;;3.78;;
22965;SDS011;11649;48.090;9.754;2022-08-25T11:01:34;3.20;;;2.90;;
22965;SDS011;11649;48.090;9.754;2022-08-25T11:04:23;5.72;;;3.85;;
22965;SDS011;11649;48.090;9.754;2022-08-25T11:09:33;5.05;;;3.92;;
22965;SDS011;11649;48.090;9.754;2022-08-25T11:12:20;7.50;;;4.63;;
22965;SDS011;11649;48.090;9.754;2022-08-25T11:15:01;5.70;;;4.30;;
22965;SDS011;11649;48.090;9.754;2022-08-25T11:17:37;5.55;;;4.07;;
22965;SDS011;11649;48.090;9.754;2022-08-25T11:20:16;4.75;;;4.25;;
22965;SDS011;11649;48.090;9.754;2022-08-25T11:22:55;5.97;;;4.28;;
22965;SDS011;11649;48.090;9.754;2022-08-25T11:25:38;5.93;;;4.47;;
22965;SDS011;11649;48.090;9.754;2022-08-25T11:28:20;4.75;;;3.92;;
22965;SDS011;11649;48.090;9.754;2022-08-25T11:31:16;5.37;;;3.53;;
22965;SDS011;11649;48.090;9.754;2022-08-25T11:33:44;5.00;;;3.42;;
22965;SDS011;11649;48.090;9.754;2022-08-25T11:36:16;4.32;;;3.90;;
22965;SDS011;11649;48.090;9.754;2022-08-25T11:38:49;4.90;;;3.55;;
22965;SDS011;11649;48.090;9.754;2022-08-25T11:50:28;4.63;;;3.60;;
22965;SDS011;11649;48.090;9.754;2022-08-25T11:53:27;3.85;;;3.55;;
22965;SDS011;11649;48.090;9.754;2022-08-25T11:56:08;4.20;;;3.65;;
22965;SDS011;11649;48.090;9.754;2022-08-25T11:58:39;4.38;;;3.70;;
22965;SDS011;11649;48.090;9.754;2022-08-25T12:01:10;3.60;;;3.30;;
22965;SDS011;11649;48.090;9.754;2022-08-25T12:04:14;3.80;;;3.50;;
22965;SDS011;11649;48.090;9.754;2022-08-25T12:26:18;11.60;;;3.30;;
22965;SDS011;11649;48.090;9.754;2022-08-25T12:31:57;4.10;;;3.58;;
22965;SDS011;11649;48.090;9.754;2022-08-25T12:37:17;5.93;;;3.30;;
22965;SDS011;11649;48.090;9.754;2022-08-25T12:42:30;4.22;;;3.05;;
22965;SDS011;11649;48.090;9.754;2022-08-25T12:45:13;4.20;;;3.15;;
22965;SDS011;11649;48.090;9.754;2022-08-25T12:48:38;3.00;;;2.70;;
22965;SDS011;11649;48.090;9.754;2022-08-25T12:51:05;4.07;;;3.47;;
22965;SDS011;11649;48.090;9.754;2022-08-25T12:56:21;4.43;;;3.22;;
22965;SDS011;11649;48.090;9.754;2022-08-25T12:59:51;3.20;;;2.80;;
22965;SDS011;11649;48.090;9.754;2022-08-25T13:02:05;4.03;;;3.28;;
22965;SDS011;11649;48.090;9.754;2022-08-25T13:10:41;5.55;;;3.03;;
22965;SDS011;11649;48.090;9.754;2022-08-25T13:16:20;5.88;;;3.25;;
22965;SDS011;11649;48.090;9.754;2022-08-25T13:18:54;3.63;;;2.67;;
22965;SDS011;11649;48.090;9.754;2022-08-25T13:21:42;3.00;;;2.70;;
22965;SDS011;11649;48.090;9.754;2022-08-25T13:27:03;2.80;;;2.50;;
22965;SDS011;11649;48.090;9.754;2022-08-25T13:29:34;2.83;;;2.60;;
22965;SDS011;11649;48.090;9.754;2022-08-25T13:32:06;4.75;;;2.80;;
22965;SDS011;11649;48.090;9.754;2022-08-25T13:34:40;5.40;;;3.10;;
22965;SDS011;11649;48.090;9.754;2022-08-25T13:37:09;5.55;;;3.25;;
22965;SDS011;11649;48.090;9.754;2022-08-25T13:40:09;2.80;;;2.40;;
22965;SDS011;11649;48.090;9.754;2022-08-25T13:42:44;2.85;;;2.65;;
22965;SDS011;11649;48.090;9.754;2022-08-25T13:45:26;4.68;;;3.05;;
22965;SDS011;11649;48.090;9.754;2022-08-25T13:47:57;3.47;;;3.08;;
22965;SDS011;11649;48.090;9.754;2022-08-25T13:52:53;3.28;;;2.60;;
22965;SDS011;11649;48.090;9.754;2022-08-25T13:55:23;3.30;;;2.50;;
22965;SDS011;11649;48.090;9.754;2022-08-25T13:57:54;2.95;;;2.65;;
22965;SDS011;11649;48.090;9.754;2022-08-25T14:00:33;3.35;;;2.40;;
22965;SDS011;11649;48.090;9.754;2022-08-25T14:03:26;3.78;;;2.35;;
22965;SDS011;11649;48.090;9.754;2022-08-25T14:08:44;2.40;;;2.20;;
22965;SDS011;11649;48.090;9.754;2022-08-25T14:11:28;2.15;;;2.00;;
22965;SDS011;11649;48.090;9.754;2022-08-25T14:13:59;4.05;;;2.38;;
22965;SDS011;11649;48.090;9.754;2022-08-25T14:16:31;5.57;;;2.78;;
22965;SDS011;11649;48.090;9.754;2022-08-25T14:19:22;1.98;;;1.88;;
22965;SDS011;11649;48.090;9.754;2022-08-25T14:21:50;2.47;;;2.25;;
22965;SDS011;11649;48.090;9.754;2022-08-25T14:24:22;2.63;;;2.15;;
22965;SDS011;11649;48.090;9.754;2022-08-25T14:26:49;2.20;;;2.00;;
22965;SDS011;11649;48.090;9.754;2022-08-25T14:29:19;3.22;;;2.20;;
22965;SDS011;11649;48.090;9.754;2022-08-25T14:31:47;2.50;;;2.20;;
22965;SDS011;11649;48.090;9.754;2022-08-25T14:34:15;3.38;;;2.03;;
22965;SDS011;11649;48.090;9.754;2022-08-25T14:36:49;2.60;;;2.40;;
22965;SDS011;11649;48.090;9.754;2022-08-25T14:39:16;5.40;;;1.95;;
22965;SDS011;11649;48.090;9.754;2022-08-25T14:41:44;2.03;;;1.83;;
22965;SDS011;11649;48.090;9.754;2022-08-25T14:44:19;2.30;;;1.90;;
22965;SDS011;11649;48.090;9.754;2022-08-25T14:46:50;4.38;;;2.08;;
22965;SDS011;11649;48.090;9.754;2022-08-25T14:49:23;2.45;;;2.10;;
22965;SDS011;11649;48.090;9.754;2022-08-25T14:51:55;2.00;;;1.80;;
22965;SDS011;11649;48.090;9.754;2022-08-25T14:54:24;2.47;;;2.00;;
22965;SDS011;11649;48.090;9.754;2022-08-25T14:56:52;2.08;;;1.88;;
22965;SDS011;11649;48.090;9.754;2022-08-25T14:59:20;2.53;;;2.10;;
22965;SDS011;11649;48.090;9.754;2022-08-25T15:01:47;2.13;;;1.92;;
22965;SDS011;11649;48.090;9.754;2022-08-25T15:04:19;2.78;;;1.90;;
22965;SDS011;11649;48.090;9.754;2022-08-25T15:06:55;3.38;;;1.83;;
22965;SDS011;11649;48.090;9.754;2022-08-25T15:09:24;5.40;;;2.08;;
22965;SDS011;11649;48.090;9.754;2022-08-25T15:11:58;2.42;;;1.80;;
22965;SDS011;11649;48.090;9.754;2022-08-25T15:14:25;3.78;;;2.05;;
22965;SDS011;11649;48.090;9.754;2022-08-25T15:16:58;1.80;;;1.70;;
22965;SDS011;11649;48.090;9.754;2022-08-25T15:19:27;4.13;;;2.10;;
22965;SDS011;11649;48.090;9.754;2022-08-25T15:21:54;3.88;;;2.35;;
22965;SDS011;11649;48.090;9.754;2022-08-25T15:24:24;4.63;;;2.13;;
22965;SDS011;11649;48.090;9.754;2022-08-25T15:26:57;3.15;;;1.98;;
22965;SDS011;11649;48.090;9.754;2022-08-25T15:29:27;3.58;;;1.85;;
22965;SDS011;11649;48.090;9.754;2022-08-25T15:31:55;3.10;;;2.03;;
22965;SDS011;11649;48.090;9.754;2022-08-25T15:34:23;3.03;;;2.15;;
22965;SDS011;11649;48.090;9.754;2022-08-25T15:36:50;2.70;;;2.30;;
22965;SDS011;11649;48.090;9.754;2022-08-25T15:39:17;3.03;;;2.08;;
22965;SDS011;11649;48.090;9.754;2022-08-25T15:41:45;1.90;;;1.70;;
22965;SDS011;11649;48.090;9.754;2022-08-25T15:44:14;2.58;;;2.20;;
22965;SDS011;11649;48.090;9.754;2022-08-25T15:46:41;1.92;;;1.73;;
22965;SDS011;11649;48.090;9.754;2022-08-25T15:49:15;2.03;;;1.90;;
22965;SDS011;11649;48.090;9.754;2022-08-25T15:51:48;2.17;;;1.90;;
22965;SDS011;11649;48.090;9.754;2022-08-25T15:54:15;3.45;;;2.10;;
22965;SDS011;11649;48.090;9.754;2022-08-25T15:56:42;7.07;;;2.60;;
22965;SDS011;11649;48.090;9.754;2022-08-25T15:59:10;4.50;;;2.35;;
22965;SDS011;11649;48.090;9.754;2022-08-25T16:01:47;4.85;;;2.20;;
22965;SDS011;11649;48.090;9.754;2022-08-25T16:04:19;2.83;;;2.03;;
22965;SDS011;11649;48.090;9.754;2022-08-25T16:06:48;3.28;;;2.22;;
22965;SDS011;11649;48.090;9.754;2022-08-25T16:09:16;8.32;;;2.63;;
22965;SDS011;11649;48.090;9.754;2022-08-25T16:11:48;4.30;;;2.45;;
22965;SDS011;11649;48.090;9.754;2022-08-25T16:14:22;6.00;;;2.60;;
22965;SDS011;11649;48.090;9.754;2022-08-25T16:16:49;4.50;;;2.75;;
22965;SDS011;11649;48.090;9.754;2022-08-25T16:19:17;3.67;;;2.45;;
22965;SDS011;11649;48.090;9.754;2022-08-25T16:21:44;4.63;;;2.60;;
22965;SDS011;11649;48.090;9.754;2022-08-25T16:24:13;2.97;;;2.40;;
22965;SDS011;11649;48.090;9.754;2022-08-25T16:26:39;3.70;;;2.60;;
22965;SDS011;11649;48.090;9.754;2022-08-25T16:29:13;6.07;;;2.92;;
22965;SDS011;11649;48.090;9.754;2022-08-25T16:31:41;5.30;;;2.85;;
22965;SDS011;11649;48.090;9.754;2022-08-25T16:34:09;10.38;;;2.80;;
22965;SDS011;11649;48.090;9.754;2022-08-25T16:36:36;4.60;;;2.85;;
22965;SDS011;11649;48.090;9.754;2022-08-25T16:39:04;5.60;;;2.83;;
22965;SDS011;11649;48.090;9.754;2022-08-25T16:41:35;3.28;;;2.70;;
22965;SDS011;11649;48.090;9.754;2022-08-25T16:44:05;2.85;;;2.53;;
22965;SDS011;11649;48.090;9.754;2022-08-25T16:46:36;3.25;;;2.90;;
22965;SDS011;11649;48.090;9.754;2022-08-25T16:49:06;5.25;;;2.60;;